Time;durP1;ratioP1;P1;durP2;ratioP2;P2;SDS_P1;SDS_P2;PMS_P1;PMS_P2;Temp;Humidity;BMP_temperature;BMP_pressure;BME280_temperature;BME280_humidity;BME280_pressure;Samples;Min_cycle;Max_cycle;Signal;HPM_P1;HPM_P2
2021/07/20 00:00:40;;;;;;;16.42;9.85;;;;;5.50;101671.00;;;;5047257;28;20025;-71
2021/07/20 00:03:10;;;;;;;21.33;12.85;;;;;5.50;101680.00;;;;5046114;28;20029;-74
2021/07/20 00:05:43;;;;;;;22.25;14.85;;;;;5.50;101681.00;;;;5046571;28;20044;-71
2021/07/20 00:08:12;;;;;;;20.45;13.30;;;;;5.50;101678.00;;;;5046387;28;20036;-73
2021/07/20 00:10:59;;;;;;;21.40;11.55;;;;;5.50;101675.00;;;;5046314;28;20024;-72
2021/07/20 00:13:26;;;;;;;20.23;11.80;;;;;5.60;101655.00;;;;5046316;28;20021;-72
2021/07/20 00:15:55;;;;;;;20.50;8.60;;;;;5.50;101674.00;;;;5045954;28;20516;-74
2021/07/20 00:18:27;;;;;;;21.25;9.27;;;;;5.40;101636.00;;;;5046563;28;20025;-73
2021/07/20 00:20:54;;;;;;;20.67;9.48;;;;;5.40;101667.00;;;;5049197;28;20040;-72
2021/07/20 00:23:22;;;;;;;19.13;11.40;;;;;5.40;101655.00;;;;5050571;28;20112;-71
2021/07/20 00:25:50;;;;;;;20.15;11.80;;;;;5.40;101653.00;;;;5049148;28;20033;-71
2021/07/20 00:28:18;;;;;;;14.88;9.20;;;;;5.40;101648.00;;;;5050443;28;20029;-72
2021/07/20 00:30:45;;;;;;;14.48;9.13;;;;;5.30;101668.00;;;;5049986;28;20484;-71
2021/07/20 00:33:12;;;;;;;16.10;9.88;;;;;5.30;101658.00;;;;5050322;28;20388;-74
2021/07/20 00:35:39;;;;;;;19.80;10.65;;;;;5.30;101670.00;;;;5049816;28;20057;-73
2021/07/20 00:38:05;;;;;;;15.73;10.85;;;;;5.30;101677.00;;;;5050459;28;20028;-71
2021/07/20 00:40:33;;;;;;;15.32;9.73;;;;;5.20;101675.00;;;;5049631;28;20111;-74
2021/07/20 00:43:01;;;;;;;21.75;11.32;;;;;5.20;101682.00;;;;5049724;28;20061;-71
2021/07/20 00:45:28;;;;;;;21.75;13.30;;;;;5.20;101688.00;;;;5049827;28;20029;-73
2021/07/20 00:47:55;;;;;;;17.92;13.95;;;;;5.30;101678.00;;;;5049949;28;20388;-72
2021/07/20 00:50:32;;;;;;;17.63;12.38;;;;;5.20;101682.00;;;;5049651;28;20083;-72
2021/07/20 00:52:58;;;;;;;20.10;14.23;;;;;5.10;101678.00;;;;5049636;28;20043;-74
2021/07/20 00:55:25;;;;;;;24.27;15.45;;;;;5.10;101682.00;;;;5049942;28;20033;-74
2021/07/20 00:57:53;;;;;;;28.15;16.70;;;;;5.00;101686.00;;;;5049871;28;20396;-74
2021/07/20 01:00:21;;;;;;;34.83;21.27;;;;;5.00;101681.00;;;;5049365;28;20021;-73
2021/07/20 01:02:48;;;;;;;39.38;21.05;;;;;5.10;101701.00;;;;5049519;28;20029;-72
2021/07/20 01:05:26;;;;;;;48.92;26.42;;;;;5.10;101700.00;;;;5049246;28;20591;-71
2021/07/20 01:07:53;;;;;;;36.97;23.40;;;;;5.10;101706.00;;;;5049916;28;20083;-71
2021/07/20 01:10:23;;;;;;;37.53;22.33;;;;;5.10;101703.00;;;;5049422;28;20024;-74
2021/07/20 01:12:51;;;;;;;23.23;15.23;;;;;5.10;101703.00;;;;5049570;28;20029;-71
2021/07/20 01:15:23;;;;;;;28.88;15.57;;;;;5.10;101690.00;;;;5049548;28;20037;-73
2021/07/20 01:17:53;;;;;;;22.35;14.70;;;;;5.10;101695.00;;;;5049621;28;20203;-70
2021/07/20 01:20:22;;;;;;;22.77;14.40;;;;;5.00;101687.00;;;;5049137;28;20029;-73
2021/07/20 01:22:57;;;;;;;23.98;14.27;;;;;4.90;101692.00;;;;5048866;28;20076;-73
2021/07/20 01:25:24;;;;;;;23.27;14.90;;;;;5.00;101707.00;;;;5047957;28;20033;-74
2021/07/20 01:27:57;;;;;;;23.85;14.98;;;;;4.90;101699.00;;;;5048573;28;20029;-73
2021/07/20 01:30:25;;;;;;;20.45;14.65;;;;;4.80;101692.00;;;;5049363;28;20040;-72
2021/07/20 01:32:52;;;;;;;24.33;13.77;;;;;4.90;101693.00;;;;5047170;28;20078;-71
2021/07/20 01:35:20;;;;;;;23.58;14.38;;;;;4.80;101703.00;;;;5048969;28;20021;-72
2021/07/20 01:37:49;;;;;;;19.98;13.02;;;;;4.80;101690.00;;;;5049305;28;20025;-72
2021/07/20 01:40:16;;;;;;;21.23;13.38;;;;;4.70;101696.00;;;;5048518;28;20059;-73
2021/07/20 01:42:45;;;;;;;19.55;12.68;;;;;4.70;101709.00;;;;5049078;28;20660;-71
2021/07/20 01:45:12;;;;;;;18.38;13.35;;;;;4.70;101679.00;;;;5049187;28;20044;-73
2021/07/20 01:47:42;;;;;;;28.65;16.27;;;;;4.60;101705.00;;;;5049500;28;20111;-72
2021/07/20 01:50:09;;;;;;;22.58;15.60;;;;;4.50;101707.00;;;;5049161;28;20044;-71
2021/07/20 01:52:36;;;;;;;21.90;13.27;;;;;4.50;101691.00;;;;5048764;28;20128;-72
2021/07/20 01:55:04;;;;;;;24.42;15.85;;;;;4.50;101687.00;;;;5048924;28;20127;-70
2021/07/20 01:57:30;;;;;;;24.25;15.82;;;;;4.50;101699.00;;;;5048999;28;20075;-70
2021/07/20 01:59:57;;;;;;;28.83;16.25;;;;;4.50;101705.00;;;;5048479;28;20033;-73
2021/07/20 02:03:13;;;;;;;24.48;16.88;;;;;4.50;101696.00;;;;5048387;28;20530;-71
2021/07/20 02:08:28;;;;;;;20.55;14.68;;;;;4.40;101701.00;;;;5025999;28;20219;-73
2021/07/20 02:11:02;;;;;;;19.65;14.40;;;;;4.40;101694.00;;;;5046024;28;20037;-71
2021/07/20 02:13:39;;;;;;;18.15;13.52;;;;;4.40;101692.00;;;;5048427;28;20242;-73
2021/07/20 02:16:06;;;;;;;19.42;14.68;;;;;4.50;101706.00;;;;5048477;28;20480;-71
2021/07/20 02:18:34;;;;;;;23.30;13.77;;;;;4.50;101713.00;;;;5048309;28;20025;-72
2021/07/20 02:21:05;;;;;;;21.52;14.15;;;;;4.40;101709.00;;;;5047404;28;20198;-71
2021/07/20 02:23:33;;;;;;;21.75;14.07;;;;;4.40;101706.00;;;;5048494;28;20064;-74
2021/07/20 02:26:00;;;;;;;31.27;16.60;;;;;4.30;101705.00;;;;5048529;28;20570;-73
2021/07/20 02:28:28;;;;;;;24.30;15.73;;;;;4.30;101701.00;;;;5048104;28;20082;-71
2021/07/20 02:30:55;;;;;;;25.15;17.55;;;;;4.40;101703.00;;;;5048231;28;20028;-72
2021/07/20 02:33:23;;;;;;;25.92;15.70;;;;;4.50;101697.00;;;;5048354;28;20029;-72
2021/07/20 02:35:50;;;;;;;22.00;15.90;;;;;4.60;101711.00;;;;5048334;28;20029;-72
2021/07/20 02:38:19;;;;;;;19.33;14.50;;;;;4.50;101718.00;;;;5048650;28;20036;-73
2021/07/20 02:40:50;;;;;;;22.42;15.10;;;;;4.50;101717.00;;;;5047961;28;20032;-71
2021/07/20 02:43:19;;;;;;;23.58;13.90;;;;;4.50;101691.00;;;;5047594;28;20476;-71
2021/07/20 02:45:47;;;;;;;16.35;12.05;;;;;4.60;101706.00;;;;5047817;28;20029;-73
2021/07/20 02:48:15;;;;;;;20.33;13.05;;;;;4.70;101700.00;;;;5047815;28;20032;-73
2021/07/20 02:50:42;;;;;;;24.35;12.48;;;;;4.70;101715.00;;;;5047860;28;20542;-73
2021/07/20 02:53:11;;;;;;;15.90;10.50;;;;;4.80;101710.00;;;;5047780;28;20033;-72
2021/07/20 02:55:38;;;;;;;18.38;11.00;;;;;4.90;101704.00;;;;5047712;28;20041;-73
2021/07/20 02:58:05;;;;;;;16.83;10.77;;;;;5.00;101699.00;;;;5047814;28;20498;-71
2021/07/20 03:00:32;;;;;;;17.05;11.50;;;;;4.90;101697.00;;;;5047769;28;20494;-71
2021/07/20 03:02:59;;;;;;;21.80;10.25;;;;;5.00;101679.00;;;;5047653;28;20071;-73
2021/07/20 03:05:26;;;;;;;15.38;10.00;;;;;5.00;101680.00;;;;5048037;28;20108;-73
2021/07/20 03:07:56;;;;;;;13.43;9.63;;;;;4.90;101686.00;;;;5047627;28;20032;-73
2021/07/20 03:10:27;;;;;;;14.27;9.63;;;;;4.90;101692.00;;;;5047355;28;20579;-70
2021/07/20 03:12:57;;;;;;;16.13;10.48;;;;;4.70;101683.00;;;;5047468;28;20910;-73
2021/07/20 03:15:25;;;;;;;13.05;9.65;;;;;4.60;101654.00;;;;5047624;28;20060;-71
2021/07/20 03:17:54;;;;;;;22.02;12.40;;;;;4.50;101657.00;;;;5047457;28;20074;-71
2021/07/20 03:20:22;;;;;;;20.20;10.85;;;;;4.50;101672.00;;;;5047811;28;20043;-73
2021/07/20 03:22:51;;;;;;;21.52;10.70;;;;;4.60;101675.00;;;;5047196;28;20112;-71
2021/07/20 03:25:18;;;;;;;13.50;9.70;;;;;4.90;101665.00;;;;5047137;28;20060;-72
2021/07/20 03:27:46;;;;;;;15.20;8.63;;;;;4.90;101650.00;;;;5047540;28;20459;-73
2021/07/20 03:30:13;;;;;;;12.13;7.93;;;;;5.00;101653.00;;;;5046901;28;20104;-73
2021/07/20 03:32:45;;;;;;;10.98;7.55;;;;;5.10;101662.00;;;;5047160;28;20056;-70
2021/07/20 03:35:16;;;;;;;17.13;8.35;;;;;5.10;101660.00;;;;5046557;28;20527;-73
2021/07/20 03:37:44;;;;;;;9.80;6.38;;;;;5.20;101642.00;;;;5047007;28;20029;-71
2021/07/20 03:40:11;;;;;;;13.90;7.55;;;;;5.30;101658.00;;;;5047091;28;20029;-73
2021/07/20 03:42:40;;;;;;;13.15;7.32;;;;;5.20;101640.00;;;;5046730;28;20078;-72
2021/07/20 03:45:08;;;;;;;20.25;6.93;;;;;5.10;101645.00;;;;5047022;28;20029;-72
2021/07/20 03:47:36;;;;;;;10.77;6.75;;;;;5.10;101646.00;;;;5047236;28;20055;-73
2021/07/20 03:50:05;;;;;;;12.93;6.65;;;;;5.10;101636.00;;;;5046443;28;20080;-72
2021/07/20 03:52:33;;;;;;;8.90;5.97;;;;;5.10;101653.00;;;;5046691;28;20063;-71
2021/07/20 03:55:00;;;;;;;11.18;6.55;;;;;5.10;101642.00;;;;5046173;28;20435;-73
2021/07/20 03:57:31;;;;;;;12.80;6.85;;;;;5.10;101632.00;;;;5047628;28;20094;-73
2021/07/20 04:00:01;;;;;;;10.45;5.80;;;;;5.20;101628.00;;;;5045254;28;20090;-69
2021/07/20 04:02:36;;;;;;;9.32;6.20;;;;;5.20;101627.00;;;;5046337;28;20440;-73
2021/07/20 04:05:04;;;;;;;13.40;6.05;;;;;5.10;101632.00;;;;5046565;28;20373;-72
2021/07/20 04:07:34;;;;;;;9.45;6.72;;;;;5.20;101646.00;;;;5046476;28;20577;-73
2021/07/20 04:10:02;;;;;;;11.10;6.40;;;;;5.20;101650.00;;;;5046374;28;20037;-73
2021/07/20 04:12:28;;;;;;;14.68;6.20;;;;;5.10;101645.00;;;;5046441;28;20041;-71
2021/07/20 04:14:55;;;;;;;12.68;6.03;;;;;5.10;101650.00;;;;5046425;28;20037;-73
2021/07/20 04:17:22;;;;;;;10.40;6.18;;;;;5.20;101633.00;;;;5046579;28;20124;-73
2021/07/20 04:19:49;;;;;;;17.50;6.82;;;;;5.10;101632.00;;;;5046330;28;20507;-73
2021/07/20 04:22:16;;;;;;;12.82;6.47;;;;;5.10;101641.00;;;;5047074;28;20033;-72
2021/07/20 04:24:44;;;;;;;16.92;6.60;;;;;5.10;101656.00;;;;5046762;28;20041;-73
2021/07/20 04:27:12;;;;;;;12.93;6.43;;;;;5.00;101636.00;;;;5046079;28;20033;-71
2021/07/20 04:29:39;;;;;;;9.30;6.25;;;;;5.00;101654.00;;;;5045797;28;20108;-72
2021/07/20 04:32:07;;;;;;;12.82;6.88;;;;;5.00;101632.00;;;;5046495;28;20492;-73
2021/07/20 04:34:36;;;;;;;19.52;7.88;;;;;4.90;101622.00;;;;5046171;28;20033;-71
2021/07/20 04:37:05;;;;;;;13.68;7.50;;;;;4.90;101648.00;;;;5046314;28;20028;-73
2021/07/20 04:39:35;;;;;;;13.90;7.70;;;;;4.80;101658.00;;;;5046402;28;20026;-73
2021/07/20 04:42:03;;;;;;;10.57;7.47;;;;;4.80;101640.00;;;;5046460;28;20021;-73
2021/07/20 04:44:31;;;;;;;14.75;6.82;;;;;4.80;101632.00;;;;5046639;28;20515;-72
2021/07/20 04:46:59;;;;;;;23.98;8.15;;;;;4.70;101630.00;;;;5046306;28;20124;-70
2021/07/20 04:49:25;;;;;;;14.02;8.10;;;;;4.80;101640.00;;;;5046585;28;20108;-71
2021/07/20 04:51:52;;;;;;;12.55;8.48;;;;;4.70;101645.00;;;;5046168;28;20102;-71
2021/07/20 04:54:20;;;;;;;14.73;8.32;;;;;4.60;101649.00;;;;5046429;28;20702;-74
2021/07/20 04:56:47;;;;;;;18.55;8.38;;;;;4.60;101644.00;;;;5045789;28;20103;-70
2021/07/20 04:59:14;;;;;;;12.50;8.25;;;;;4.60;101645.00;;;;5044657;28;20119;-70
2021/07/20 05:01:42;;;;;;;13.70;8.77;;;;;4.50;101624.00;;;;5046213;28;20029;-70
2021/07/20 05:04:10;;;;;;;17.13;7.70;;;;;4.50;101632.00;;;;5046007;28;20029;-71
2021/07/20 05:06:38;;;;;;;17.40;8.10;;;;;4.50;101647.00;;;;5048149;28;20033;-72
2021/07/20 05:09:06;;;;;;;18.92;8.20;;;;;4.50;101632.00;;;;5049755;28;20114;-71
2021/07/20 05:11:37;;;;;;;17.45;8.95;;;;;4.60;101637.00;;;;5050111;28;20021;-70
2021/07/20 05:14:04;;;;;;;15.90;8.77;;;;;4.70;101648.00;;;;5049929;28;20155;-71
2021/07/20 05:16:33;;;;;;;20.45;8.60;;;;;4.80;101637.00;;;;5049730;28;20504;-72
2021/07/20 05:19:00;;;;;;;14.52;8.55;;;;;4.70;101640.00;;;;5049901;28;20037;-71
2021/07/20 05:21:29;;;;;;;13.63;8.45;;;;;4.70;101656.00;;;;5049494;28;20036;-73
2021/07/20 05:23:58;;;;;;;12.70;8.07;;;;;4.70;101634.00;;;;5049081;28;20029;-71
2021/07/20 05:26:26;;;;;;;11.90;7.35;;;;;4.60;101641.00;;;;5049576;28;20064;-73
2021/07/20 05:28:55;;;;;;;12.98;7.88;;;;;4.50;101629.00;;;;5048966;28;20025;-71
2021/07/20 05:31:25;;;;;;;10.57;6.78;;;;;4.40;101634.00;;;;5049221;28;20028;-72
2021/07/20 05:33:52;;;;;;;16.63;8.55;;;;;4.40;101639.00;;;;5048967;28;20491;-73
2021/07/20 05:36:19;;;;;;;14.23;7.88;;;;;4.50;101644.00;;;;5049418;28;20188;-73
2021/07/20 05:38:45;;;;;;;17.73;7.43;;;;;4.50;101637.00;;;;5049009;28;20051;-72
2021/07/20 05:41:12;;;;;;;16.45;7.30;;;;;4.60;101649.00;;;;5049512;28;20034;-71
2021/07/20 05:43:40;;;;;;;14.13;7.88;;;;;4.50;101631.00;;;;5049540;28;20107;-73
2021/07/20 05:46:07;;;;;;;11.02;6.57;;;;;4.50;101640.00;;;;5049063;28;20503;-72
2021/07/20 05:48:35;;;;;;;13.15;7.72;;;;;4.40;101629.00;;;;5048755;28;20140;-71
2021/07/20 05:51:04;;;;;;;12.18;6.95;;;;;4.30;101626.00;;;;5048896;28;20594;-72
2021/07/20 05:53:32;;;;;;;11.73;6.47;;;;;4.20;101641.00;;;;5048894;28;20029;-72
2021/07/20 05:56:02;;;;;;;11.85;7.40;;;;;4.20;101635.00;;;;5048924;28;20032;-71
2021/07/20 05:58:30;;;;;;;13.05;7.93;;;;;4.10;101619.00;;;;5048850;28;20041;-73
2021/07/20 06:01:08;;;;;;;17.85;8.60;;;;;4.00;101617.00;;;;5048749;28;20047;-74
2021/07/20 06:03:35;;;;;;;14.70;8.93;;;;;4.00;101615.00;;;;5048512;28;20079;-71
2021/07/20 06:06:03;;;;;;;14.30;8.98;;;;;4.00;101614.00;;;;5048630;28;20033;-70
2021/07/20 06:08:31;;;;;;;16.70;9.90;;;;;3.90;101626.00;;;;5049252;28;20028;-70
2021/07/20 06:11:04;;;;;;;19.73;9.65;;;;;3.80;101609.00;;;;5048842;28;20087;-71
2021/07/20 06:13:40;;;;;;;14.88;8.85;;;;;3.80;101606.00;;;;5048406;28;20032;-72
2021/07/20 06:16:09;;;;;;;16.52;9.32;;;;;3.70;101616.00;;;;5048745;28;20043;-72
2021/07/20 06:18:38;;;;;;;18.98;9.93;;;;;3.70;101618.00;;;;5048035;28;20448;-73
2021/07/20 06:21:10;;;;;;;20.92;11.93;;;;;3.70;101628.00;;;;5048197;28;20024;-73
2021/07/20 06:23:48;;;;;;;18.00;10.73;;;;;3.60;101614.00;;;;5048688;28;20025;-73
2021/07/20 06:26:23;;;;;;;25.00;15.20;;;;;3.50;101628.00;;;;5048135;28;20025;-72
2021/07/20 06:28:54;;;;;;;21.92;13.60;;;;;3.30;101627.00;;;;5048253;28;20107;-70
2021/07/20 06:31:21;;;;;;;16.50;9.13;;;;;3.20;101630.00;;;;5048549;28;20017;-70
2021/07/20 06:33:48;;;;;;;18.08;10.73;;;;;3.20;101616.00;;;;5048619;28;20055;-74
2021/07/20 06:36:19;;;;;;;17.02;11.15;;;;;3.20;101628.00;;;;5048803;28;20107;-70
2021/07/20 06:38:47;;;;;;;14.43;9.48;;;;;3.10;101613.00;;;;5047572;28;20116;-72
2021/07/20 06:41:13;;;;;;;19.65;9.10;;;;;3.10;101609.00;;;;5047712;28;20658;-72
2021/07/20 06:43:42;;;;;;;23.00;13.40;;;;;3.10;101628.00;;;;5047898;28;20539;-73
2021/07/20 06:46:09;;;;;;;19.95;11.15;;;;;3.10;101623.00;;;;5048193;28;20166;-73
2021/07/20 06:48:45;;;;;;;20.83;10.70;;;;;3.10;101633.00;;;;5048230;28;20601;-71
2021/07/20 06:51:12;;;;;;;20.05;10.57;;;;;3.10;101640.00;;;;5047912;28;20057;-71
2021/07/20 06:53:38;;;;;;;14.60;8.60;;;;;3.10;101618.00;;;;5047712;28;20094;-70
2021/07/20 06:56:07;;;;;;;18.17;8.85;;;;;3.00;101617.00;;;;5048194;28;20044;-72
2021/07/20 06:58:34;;;;;;;15.00;8.77;;;;;3.10;101637.00;;;;5048607;28;20783;-72
2021/07/20 07:01:03;;;;;;;15.20;8.30;;;;;3.00;101623.00;;;;5048150;28;20029;-73
2021/07/20 07:03:52;;;;;;;14.75;8.40;;;;;3.00;101620.00;;;;5047571;28;20039;-71
2021/07/20 07:06:21;;;;;;;13.85;7.47;;;;;3.10;101607.00;;;;5047524;28;20032;-72
2021/07/20 07:08:48;;;;;;;15.18;7.40;;;;;3.00;101620.00;;;;5047524;28;20503;-71
2021/07/20 07:11:16;;;;;;;12.48;8.32;;;;;3.10;101606.00;;;;5047413;28;20032;-71
2021/07/20 07:13:43;;;;;;;15.35;9.95;;;;;3.00;101605.00;;;;5047203;28;20059;-72
2021/07/20 07:16:11;;;;;;;26.10;16.48;;;;;2.80;101593.00;;;;5047061;28;20036;-74
2021/07/20 07:18:38;;;;;;;18.85;12.48;;;;;2.90;101582.00;;;;5047569;28;20044;-71
2021/07/20 07:21:06;;;;;;;18.63;12.20;;;;;2.90;101588.00;;;;5047918;28;20154;-70
2021/07/20 07:23:34;;;;;;;15.07;10.07;;;;;2.90;101600.00;;;;5047325;28;20036;-72
2021/07/20 07:26:02;;;;;;;18.17;10.98;;;;;2.90;101576.00;;;;5046710;28;20476;-72
2021/07/20 07:28:29;;;;;;;19.08;12.25;;;;;2.80;101574.00;;;;5046613;28;20060;-71
2021/07/20 07:30:56;;;;;;;19.60;10.07;;;;;2.70;101578.00;;;;5045858;28;20044;-73
2021/07/20 07:33:23;;;;;;;19.17;9.88;;;;;2.60;101571.00;;;;5046641;28;20032;-72
2021/07/20 07:35:50;;;;;;;11.90;8.10;;;;;2.60;101583.00;;;;5046884;28;20033;-73
2021/07/20 07:38:19;;;;;;;13.48;7.60;;;;;2.80;101565.00;;;;5047068;28;20396;-72
2021/07/20 07:40:54;;;;;;;13.65;8.35;;;;;2.70;101560.00;;;;5047161;28;20059;-72
2021/07/20 07:43:23;;;;;;;18.50;8.70;;;;;2.70;101572.00;;;;5046346;28;20041;-71
2021/07/20 07:45:54;;;;;;;13.50;7.90;;;;;2.60;101555.00;;;;5046954;28;20029;-70
2021/07/20 07:48:23;;;;;;;17.83;8.13;;;;;2.50;101546.00;;;;5047412;28;20029;-73
2021/07/20 07:50:50;;;;;;;13.32;8.10;;;;;2.50;101547.00;;;;5046846;28;20658;-70
2021/07/20 07:53:17;;;;;;;11.52;7.43;;;;;2.50;101568.00;;;;5046779;28;20757;-71
2021/07/20 07:55:44;;;;;;;15.48;8.23;;;;;2.50;101572.00;;;;5046616;28;20499;-71
2021/07/20 07:58:15;;;;;;;14.10;7.75;;;;;2.60;101559.00;;;;5046386;28;20123;-71
2021/07/20 08:00:42;;;;;;;;;;;;;2.60;101577.00;;;;5047342;28;20052;-73
2021/07/20 08:03:13;;;;;;;16.52;7.35;;;;;2.70;101551.00;;;;5046954;28;20210;-72
2021/07/20 08:05:42;;;;;;;15.40;7.88;;;;;2.70;101557.00;;;;5046620;28;20025;-72
2021/07/20 08:08:09;;;;;;;12.32;7.70;;;;;2.70;101539.00;;;;5046382;28;20025;-71
2021/07/20 08:10:36;;;;;;;12.00;8.00;;;;;2.70;101551.00;;;;5046229;28;20024;-72
2021/07/20 08:13:05;;;;;;;11.88;8.10;;;;;2.60;101547.00;;;;5047008;28;20032;-72
2021/07/20 08:15:33;;;;;;;10.57;7.70;;;;;2.60;101557.00;;;;5047323;28;20585;-73
2021/07/20 08:18:01;;;;;;;11.05;7.78;;;;;2.60;101555.00;;;;5046163;28;20033;-70
2021/07/20 08:20:29;;;;;;;16.02;8.07;;;;;2.60;101555.00;;;;5046414;28;20036;-71
2021/07/20 08:22:55;;;;;;;19.77;8.52;;;;;2.70;101546.00;;;;5045792;28;20518;-73
2021/07/20 08:25:32;;;;;;;12.35;8.20;;;;;2.60;101561.00;;;;5046504;28;20086;-73
2021/07/20 08:28:06;;;;;;;18.73;8.07;;;;;2.60;101556.00;;;;5046697;28;20029;-72
2021/07/20 08:30:40;;;;;;;14.43;8.38;;;;;2.60;101544.00;;;;5046267;28;20108;-70
2021/07/20 08:33:18;;;;;;;14.38;8.25;;;;;2.60;101556.00;;;;5046387;28;20056;-72
2021/07/20 08:35:45;;;;;;;14.95;8.27;;;;;2.50;101561.00;;;;5046993;28;20692;-72
2021/07/20 08:38:14;;;;;;;17.40;7.93;;;;;2.50;101563.00;;;;5046741;28;20090;-72
2021/07/20 08:40:49;;;;;;;21.55;8.40;;;;;2.50;101572.00;;;;5047177;28;20568;-73
2021/07/20 08:43:37;;;;;;;14.00;8.80;;;;;2.60;101563.00;;;;5049376;28;20071;-73
2021/07/20 08:46:28;;;;;;;15.68;8.77;;;;;2.60;101562.00;;;;5050082;28;20025;-69
2021/07/20 08:49:06;;;;;;;11.43;7.47;;;;;2.70;101562.00;;;;5050302;28;20025;-73
2021/07/20 08:52:02;;;;;;;19.45;8.80;;;;;2.60;101574.00;;;;5049924;28;20572;-72
2021/07/20 08:54:37;;;;;;;12.73;7.70;;;;;2.50;101574.00;;;;5050249;28;20025;-72
2021/07/20 08:57:08;;;;;;;14.65;8.32;;;;;2.50;101590.00;;;;5050181;28;20399;-71
2021/07/20 08:59:52;;;;;;;21.23;8.95;;;;;2.40;101578.00;;;;5049570;28;20407;-72
2021/07/20 09:02:34;;;;;;;13.95;7.68;;;;;2.30;101590.00;;;;5049728;28;20085;-72
2021/07/20 09:05:12;;;;;;;12.57;7.38;;;;;2.20;101588.00;;;;5050304;28;20108;-72
2021/07/20 09:07:44;;;;;;;15.35;8.80;;;;;2.20;101590.00;;;;5048294;28;20102;-72
2021/07/20 09:10:13;;;;;;;15.32;8.30;;;;;2.20;101590.00;;;;5048849;28;20029;-71
2021/07/20 09:12:49;;;;;;;13.98;8.23;;;;;2.20;101596.00;;;;5049950;28;20120;-73
2021/07/20 09:15:20;;;;;;;12.18;8.50;;;;;2.20;101607.00;;;;5048991;28;20036;-72
2021/07/20 09:18:10;;;;;;;14.80;8.88;;;;;2.30;101597.00;;;;5049962;28;20499;-73
2021/07/20 09:20:41;;;;;;;18.88;9.18;;;;;2.30;101593.00;;;;5049956;28;20051;-69
2021/07/20 09:23:28;;;;;;;13.60;8.73;;;;;2.40;101587.00;;;;5048980;28;20071;-73
2021/07/20 09:26:07;;;;;;;11.50;7.82;;;;;2.40;101608.00;;;;5050057;28;20033;-72
2021/07/20 09:28:48;;;;;;;15.50;8.90;;;;;2.40;101588.00;;;;5049565;28;20108;-73
2021/07/20 09:31:32;;;;;;;16.77;9.63;;;;;2.40;101604.00;;;;5050092;28;20029;-71
2021/07/20 09:34:13;;;;;;;16.98;9.05;;;;;2.30;101603.00;;;;5049414;28;20029;-71
2021/07/20 09:36:53;;;;;;;20.02;9.52;;;;;2.40;101579.00;;;;5049349;28;20024;-72
2021/07/20 09:39:47;;;;;;;14.38;8.68;;;;;2.60;101608.00;;;;5049175;28;20032;-72
2021/07/20 09:42:29;;;;;;;17.60;9.95;;;;;2.50;101614.00;;;;5046166;28;20052;-71
2021/07/20 09:45:17;;;;;;;14.35;9.18;;;;;2.60;101614.00;;;;5048798;28;20078;-71
2021/07/20 09:48:08;;;;;;;16.30;8.55;;;;;2.70;101605.00;;;;5049384;28;20365;-71
2021/07/20 09:50:43;;;;;;;14.35;9.13;;;;;2.70;101593.00;;;;5048879;28;20048;-72
2021/07/20 09:53:51;;;;;;;8.85;7.65;;;;;2.70;101627.00;;;;5048476;28;20565;-71
2021/07/20 09:57:02;;;;;;;23.25;9.63;;;;;2.70;101624.00;;;;5045926;28;20075;-73
2021/07/20 09:59:53;;;;;;;21.33;8.90;;;;;2.50;101639.00;;;;5028661;28;20124;-72
2021/07/20 10:02:49;;;;;;;;;;;;;2.40;101641.00;;;;5049285;28;20033;-71
2021/07/20 10:05:27;;;;;;;12.15;8.30;;;;;2.50;101632.00;;;;5043267;28;19916;-71
2021/07/20 10:08:05;;;;;;;13.77;8.52;;;;;2.50;101635.00;;;;5048803;28;20082;-71
2021/07/20 10:10:42;;;;;;;13.27;8.68;;;;;2.50;101616.00;;;;5048584;28;20025;-71
2021/07/20 10:13:20;;;;;;;14.23;9.65;;;;;2.50;101637.00;;;;5049005;28;20031;-71
2021/07/20 10:16:08;;;;;;;18.00;9.35;;;;;2.60;101639.00;;;;5048892;28;20029;-71
2021/07/20 10:19:15;;;;;;;16.17;9.30;;;;;2.50;101630.00;;;;5048563;28;20753;-71
2021/07/20 10:21:47;;;;;;;14.82;9.18;;;;;2.60;101657.00;;;;5047686;28;20040;-70
2021/07/20 10:24:20;;;;;;;19.90;10.35;;;;;2.70;101654.00;;;;5048604;28;20044;-72
2021/07/20 10:27:06;;;;;;;17.08;9.70;;;;;2.70;101652.00;;;;5047346;28;20040;-70
2021/07/20 10:30:11;;;;;;;11.00;8.57;;;;;2.70;101641.00;;;;5048126;28;20097;-69
2021/07/20 10:32:56;;;;;;;22.58;8.88;;;;;2.60;101655.00;;;;5048423;28;20041;-72
2021/07/20 10:35:55;;;;;;;16.27;10.68;;;;;2.60;101653.00;;;;5048200;28;20582;-71
2021/07/20 10:38:47;;;;;;;14.40;8.32;;;;;2.50;101634.00;;;;5038845;28;20432;-70
2021/07/20 10:41:23;;;;;;;16.65;8.88;;;;;2.50;101660.00;;;;5043686;28;20041;-71
2021/07/20 10:44:08;;;;;;;25.38;9.85;;;;;2.50;101654.00;;;;5047511;28;20101;-71
2021/07/20 10:46:36;;;;;;;16.55;10.13;;;;;2.50;101638.00;;;;5047581;28;20033;-73
2021/07/20 10:49:34;;;;;;;17.55;10.00;;;;;3.00;101613.00;;;;5047632;28;20154;-71
2021/07/20 10:52:21;;;;;;;18.02;10.75;;;;;4.70;101521.00;;;;5043575;28;20095;-72
2021/07/20 10:54:57;;;;;;;11.18;8.30;;;;;6.20;101470.00;;;;5036613;28;20502;-71
2021/07/20 10:57:33;;;;;;;16.02;7.53;;;;;7.60;101473.00;;;;5047823;28;20044;-71
2021/07/20 11:00:10;;;;;;;17.38;6.93;;;;;8.30;101496.00;;;;5046860;28;20021;-70
2021/07/20 11:02:49;;;;;;;10.23;5.80;;;;;8.30;101545.00;;;;5047648;28;20044;-69
2021/07/20 11:05:16;;;;;;;12.55;6.45;;;;;8.30;101543.00;;;;5047393;28;20048;-72
2021/07/20 11:07:49;;;;;;;10.23;5.75;;;;;7.30;101577.00;;;;5047777;28;20044;-73
2021/07/20 11:10:37;;;;;;;11.27;5.45;;;;;7.90;101544.00;;;;5047000;28;20435;-72
2021/07/20 11:13:12;;;;;;;18.70;5.90;;;;;7.30;101553.00;;;;5047624;28;20059;-72
2021/07/20 11:15:43;;;;;;;16.73;6.20;;;;;7.90;101518.00;;;;5047800;28;20518;-71
2021/07/20 11:18:15;;;;;;;13.18;6.13;;;;;9.00;101527.00;;;;5047725;28;20039;-72
2021/07/20 11:20:43;;;;;;;17.52;5.90;;;;;8.90;101520.00;;;;5047410;28;20063;-73
2021/07/20 11:23:11;;;;;;;36.00;8.95;;;;;11.00;101454.00;;;;5047273;28;20025;-72
2021/07/20 11:25:40;;;;;;;26.70;9.38;;;;;11.20;101509.00;;;;5046738;28;20522;-73
2021/07/20 11:28:07;;;;;;;16.00;6.25;;;;;11.50;101471.00;;;;5046824;28;20222;-71
2021/07/20 11:30:37;;;;;;;21.75;9.55;;;;;12.50;101462.00;;;;5046910;28;20075;-73
2021/07/20 11:33:31;;;;;;;16.92;8.90;;;;;13.70;101443.00;;;;5047201;28;20051;-72
2021/07/20 11:35:59;;;;;;;25.30;11.82;;;;;13.70;101413.00;;;;5047153;28;20439;-73
2021/07/20 11:38:29;;;;;;;15.15;8.93;;;;;14.10;101420.00;;;;5047080;28;20400;-72
2021/07/20 11:41:23;;;;;;;23.02;8.57;;;;;14.80;101435.00;;;;5047075;28;20028;-73
2021/07/20 11:44:01;;;;;;;26.05;8.10;;;;;15.30;101422.00;;;;5047469;28;20513;-74
2021/07/20 11:46:38;;;;;;;15.70;7.32;;;;;15.20;101427.00;;;;5047401;28;20032;-72
2021/07/20 11:49:10;;;;;;;17.40;6.88;;;;;15.10;101411.00;;;;5046963;28;20369;-73
2021/07/20 11:51:53;;;;;;;18.02;6.18;;;;;14.70;101422.00;;;;5046763;28;20049;-72
2021/07/20 11:54:40;;;;;;;16.58;7.03;;;;;15.40;101415.00;;;;5046759;28;20036;-71
2021/07/20 11:57:45;;;;;;;31.90;8.38;;;;;15.50;101424.00;;;;5046678;28;20033;-74
2021/07/20 12:00:40;;;;;;;30.75;8.70;;;;;16.10;101377.00;;;;5046393;28;20163;-73
2021/07/20 12:03:19;;;;;;;22.05;6.43;;;;;16.50;101399.00;;;;5046402;28;20082;-71
2021/07/20 12:06:31;;;;;;;16.00;6.68;;;;;17.40;101446.00;;;;5046532;28;20029;-73
2021/07/20 12:09:30;;;;;;;16.05;6.03;;;;;17.10;101486.00;;;;5046584;28;20037;-73
2021/07/20 12:11:58;;;;;;;19.25;6.07;;;;;16.80;101459.00;;;;5046916;28;20036;-72
2021/07/20 12:14:25;;;;;;;20.05;5.88;;;;;16.90;101495.00;;;;5046315;28;20488;-71
2021/07/20 12:16:55;;;;;;;10.85;5.80;;;;;17.20;101483.00;;;;5045873;28;20025;-74
2021/07/20 12:19:28;;;;;;;13.55;6.93;;;;;17.30;101479.00;;;;5046846;28;21048;-75
2021/07/20 12:21:55;;;;;;;14.10;6.35;;;;;17.50;101480.00;;;;5046829;28;20073;-74
2021/07/20 12:24:23;;;;;;;24.05;8.65;;;;;17.70;101465.00;;;;5046106;28;20033;-74
2021/07/20 12:26:51;;;;;;;13.73;6.18;;;;;18.00;101477.00;;;;5046684;28;20607;-74
2021/07/20 12:29:18;;;;;;;12.02;6.70;;;;;18.00;101473.00;;;;5046247;28;20483;-73
2021/07/20 12:31:48;;;;;;;13.45;6.03;;;;;18.20;101494.00;;;;5047089;28;20167;-73
2021/07/20 12:34:16;;;;;;;15.57;6.80;;;;;18.60;101518.00;;;;5046769;28;20025;-72